createdAt,value
2023-04-18T00:00:27.500Z,24.83
2023-04-18T00:02:55.102Z,23.25
2023-04-18T00:05:21.914Z,25.48
2023-04-18T00:07:48.555Z,25.30
2023-04-18T00:10:15.439Z,24.30
2023-04-18T00:12:42.834Z,23.60
2023-04-18T00:15:09.682Z,21.88
2023-04-18T00:17:39.811Z,23.80
2023-04-18T00:20:10.681Z,27.33
2023-04-18T00:22:42.968Z,23.67
2023-04-18T00:25:10.865Z,24.70
2023-04-18T00:27:38.269Z,21.30
2023-04-18T00:30:06.226Z,30.92
2023-04-18T00:32:32.753Z,25.15
2023-04-18T00:34:59.331Z,24.42
2023-04-18T00:37:25.877Z,25.15
2023-04-18T00:39:53.882Z,23.40
2023-04-18T00:42:21.847Z,22.70
2023-04-18T00:44:49.072Z,20.30
2023-04-18T00:47:17.352Z,22.50
2023-04-18T00:49:45.019Z,26.55
2023-04-18T00:52:12.668Z,21.60
2023-04-18T00:54:41.025Z,21.80
2023-04-18T00:57:08.040Z,19.58
2023-04-18T00:59:35.564Z,19.90
2023-04-18T01:02:03.813Z,20.20
2023-04-18T01:04:32.767Z,19.65
2023-04-18T01:07:00.928Z,19.63
2023-04-18T01:09:29.133Z,24.33
2023-04-18T01:11:55.571Z,19.80
2023-04-18T01:14:22.167Z,21.83
2023-04-18T01:16:48.741Z,20.77
2023-04-18T01:19:19.180Z,20.55
2023-04-18T01:21:45.723Z,18.90
2023-04-18T01:24:16.554Z,19.75
2023-04-18T01:26:45.252Z,18.70
2023-04-18T01:29:11.817Z,22.80
2023-04-18T01:31:39.440Z,20.73
2023-04-18T01:34:07.838Z,18.60
2023-04-18T01:36:35.931Z,17.15
2023-04-18T01:39:02.417Z,22.05
2023-04-18T01:41:32.203Z,19.73
2023-04-18T01:43:59.288Z,19.65
2023-04-18T01:46:26.408Z,18.42
2023-04-18T01:48:53.846Z,24.58
2023-04-18T01:51:20.958Z,20.10
2023-04-18T01:53:47.450Z,18.77
2023-04-18T01:56:14.001Z,19.35
2023-04-18T01:58:41.614Z,18.02
2023-04-18T02:01:08.703Z,17.38
2023-04-18T02:03:35.450Z,19.63
2023-04-18T02:06:04.000Z,17.75
2023-04-18T02:08:30.920Z,16.77
2023-04-18T02:10:57.405Z,16.90
2023-04-18T02:13:23.909Z,18.80
2023-04-18T02:15:50.878Z,15.30
2023-04-18T02:18:18.153Z,15.00
2023-04-18T02:20:46.331Z,17.40
2023-04-18T02:23:12.829Z,18.95
2023-04-18T02:25:39.294Z,17.75
2023-04-18T02:28:05.722Z,15.68
2023-04-18T02:30:32.427Z,19.25
2023-04-18T02:33:01.995Z,19.70
2023-04-18T02:35:29.077Z,17.10
2023-04-18T02:37:55.508Z,18.63
2023-04-18T02:40:21.990Z,17.88
2023-04-18T02:42:48.458Z,17.55
2023-04-18T02:45:15.164Z,19.42
2023-04-18T02:47:53.802Z,16.77
2023-04-18T02:50:22.590Z,18.05
2023-04-18T02:52:49.325Z,16.42
2023-04-18T02:55:18.114Z,19.33
2023-04-18T02:57:45.405Z,17.25
2023-04-18T03:00:30.529Z,17.80
2023-04-18T03:03:13.137Z,19.25
2023-04-18T03:05:49.370Z,20.05
2023-04-18T03:08:16.216Z,18.20
2023-04-18T03:10:42.966Z,18.08
2023-04-18T03:13:09.799Z,17.30
2023-04-18T03:15:37.359Z,17.58
2023-04-18T03:18:05.214Z,20.45
2023-04-18T03:20:35.022Z,18.73
2023-04-18T03:23:01.494Z,17.85
2023-04-18T03:25:30.002Z,17.55
2023-04-18T03:27:57.794Z,19.65
2023-04-18T03:30:25.466Z,19.83
2023-04-18T03:32:55.944Z,20.08
2023-04-18T03:35:22.697Z,19.67
2023-04-18T03:37:49.748Z,18.67
2023-04-18T03:40:23.415Z,19.30
2023-04-18T03:42:52.367Z,18.65
2023-04-18T03:45:19.551Z,18.02
2023-04-18T03:47:46.877Z,19.63
2023-04-18T03:50:13.750Z,19.23
2023-04-18T03:52:42.034Z,21.05
2023-04-18T03:55:09.000Z,21.63
2023-04-18T03:57:35.503Z,21.35
2023-04-18T04:00:07.932Z,20.98
2023-04-18T04:02:42.222Z,20.10
2023-04-18T04:05:11.349Z,21.45
2023-04-18T04:07:38.027Z,21.80
2023-04-18T04:10:06.125Z,20.75
2023-04-18T04:12:32.612Z,20.67
2023-04-18T04:14:59.437Z,19.83
2023-04-18T04:17:26.465Z,17.52
2023-04-18T04:19:53.112Z,19.40
2023-04-18T04:22:20.855Z,23.02
2023-04-18T04:24:47.859Z,23.58
2023-04-18T04:27:18.847Z,22.63
2023-04-18T04:29:45.824Z,22.65
2023-04-18T04:32:13.459Z,21.05
2023-04-18T04:34:41.640Z,26.60
2023-04-18T04:37:10.453Z,19.67
2023-04-18T04:39:46.153Z,20.52
2023-04-18T04:42:26.707Z,21.42
2023-04-18T04:44:59.866Z,21.35
2023-04-18T04:47:26.433Z,23.65
2023-04-18T04:49:53.888Z,22.45
2023-04-18T04:52:20.415Z,19.05
2023-04-18T04:54:47.035Z,18.98
2023-04-18T04:57:16.048Z,18.83
2023-04-18T04:59:42.675Z,20.65
2023-04-18T05:02:09.345Z,22.55
2023-04-18T05:04:36.288Z,23.27
2023-04-18T05:07:02.829Z,20.67
2023-04-18T05:09:29.305Z,18.13
2023-04-18T05:11:55.753Z,19.73
2023-04-18T05:14:22.775Z,20.63
2023-04-18T05:16:49.281Z,16.85
2023-04-18T05:19:15.766Z,17.88
2023-04-18T05:21:42.238Z,20.02
2023-04-18T05:24:08.907Z,20.67
2023-04-18T05:26:35.385Z,20.35
2023-04-18T05:29:01.918Z,18.85
2023-04-18T05:31:28.846Z,22.13
2023-04-18T05:33:55.761Z,17.88
2023-04-18T05:36:22.567Z,19.17
2023-04-18T05:38:49.085Z,18.52
2023-04-18T05:41:15.825Z,22.73
2023-04-18T05:43:44.449Z,19.90
2023-04-18T05:46:12.799Z,19.20
2023-04-18T05:48:39.357Z,18.85
2023-04-18T05:51:05.898Z,18.75
2023-04-18T05:53:32.462Z,19.63
2023-04-18T05:55:59.874Z,17.58
2023-04-18T05:58:28.647Z,19.10
2023-04-18T06:00:55.147Z,20.60
2023-04-18T06:03:21.698Z,19.10
2023-04-18T06:05:48.320Z,20.42
2023-04-18T06:08:14.802Z,21.38
2023-04-18T06:10:41.246Z,18.10
2023-04-18T06:13:07.793Z,18.17
2023-04-18T06:15:34.933Z,22.52
2023-04-18T06:18:01.508Z,20.10
2023-04-18T06:20:28.095Z,20.10
2023-04-18T06:22:54.516Z,19.95
2023-04-18T06:25:20.966Z,18.55
2023-04-18T06:27:47.454Z,20.85
2023-04-18T06:30:14.082Z,18.90
2023-04-18T06:32:40.600Z,17.23
2023-04-18T06:35:07.446Z,19.05
2023-04-18T06:37:34.160Z,18.65
2023-04-18T06:40:00.706Z,19.70
2023-04-18T06:42:27.282Z,17.77
2023-04-18T06:44:54.169Z,18.13
2023-04-18T06:47:20.636Z,21.23
2023-04-18T06:49:47.144Z,19.67
2023-04-18T06:52:13.606Z,18.27
2023-04-18T06:54:40.119Z,19.17
2023-04-18T06:57:06.618Z,20.75
2023-04-18T06:59:33.185Z,19.45
2023-04-18T07:01:59.700Z,17.02
2023-04-18T07:04:26.365Z,18.00
2023-04-18T07:06:52.932Z,16.63
2023-04-18T07:09:19.876Z,18.50
2023-04-18T07:11:46.324Z,19.38
2023-04-18T07:14:12.941Z,19.58
2023-04-18T07:16:39.662Z,18.88
2023-04-18T07:19:06.704Z,18.80
2023-04-18T07:21:33.235Z,17.88
2023-04-18T07:23:59.718Z,16.95
2023-04-18T07:26:27.549Z,20.65
2023-04-18T07:28:54.008Z,18.42
2023-04-18T07:31:20.603Z,17.42
2023-04-18T07:33:47.076Z,19.80
2023-04-18T07:36:13.765Z,18.05
2023-04-18T07:38:40.289Z,18.15
2023-04-18T07:41:06.834Z,17.42
2023-04-18T07:43:33.294Z,19.70
2023-04-18T07:45:59.894Z,16.23
2023-04-18T07:48:26.819Z,19.25
2023-04-18T07:50:53.583Z,18.27
2023-04-18T07:53:20.149Z,19.10
2023-04-18T07:55:46.675Z,16.77
2023-04-18T07:58:13.716Z,19.15
2023-04-18T08:00:42.404Z,22.23
2023-04-18T08:03:12.371Z,17.23
2023-04-18T08:05:40.541Z,19.90
2023-04-18T08:08:08.377Z,19.00
2023-04-18T08:10:35.139Z,19.73
2023-04-18T08:13:02.516Z,18.65
2023-04-18T08:15:29.156Z,18.00
2023-04-18T08:17:55.742Z,18.02
2023-04-18T08:20:23.268Z,16.92
2023-04-18T08:23:05.178Z,18.08
2023-04-18T08:25:36.063Z,17.27
2023-04-18T08:28:02.494Z,19.75
2023-04-18T08:30:29.105Z,17.75
2023-04-18T08:32:55.668Z,19.27
2023-04-18T08:35:22.272Z,26.10
2023-04-18T08:37:48.727Z,19.30
2023-04-18T08:40:15.540Z,17.77
2023-04-18T08:42:46.679Z,19.05
2023-04-18T08:45:14.205Z,19.35
2023-04-18T08:47:43.480Z,16.25
2023-04-18T08:50:10.572Z,16.80
2023-04-18T08:52:39.292Z,17.33
2023-04-18T08:55:06.315Z,17.25
2023-04-18T08:57:33.230Z,16.08
2023-04-18T09:00:02.505Z,18.90
2023-04-18T09:02:38.803Z,17.58
2023-04-18T09:05:16.537Z,18.50
2023-04-18T09:07:43.189Z,20.48
2023-04-18T09:10:10.235Z,23.67
2023-04-18T09:12:56.785Z,17.73
2023-04-18T09:15:27.036Z,18.88
2023-04-18T09:17:56.218Z,21.83
2023-04-18T09:20:27.262Z,20.20
2023-04-18T09:22:57.650Z,19.70
2023-04-18T09:25:39.098Z,17.90
2023-04-18T09:28:28.214Z,18.42
2023-04-18T09:30:56.471Z,18.85
2023-04-18T09:33:37.015Z,19.95
2023-04-18T09:36:20.051Z,19.20
2023-04-18T09:38:47.796Z,18.58
2023-04-18T09:41:18.505Z,18.25
2023-04-18T09:43:47.252Z,19.77
2023-04-18T09:46:14.784Z,20.40
2023-04-18T09:48:41.816Z,17.42
2023-04-18T09:51:11.036Z,16.70
2023-04-18T09:53:39.892Z,16.88
2023-04-18T09:56:08.552Z,19.90
2023-04-18T09:58:41.483Z,17.67
2023-04-18T10:01:08.460Z,19.80
2023-04-18T10:03:44.326Z,17.98
2023-04-18T10:06:11.775Z,19.08
2023-04-18T10:08:40.007Z,18.20
2023-04-18T10:11:06.561Z,17.10
2023-04-18T10:13:35.607Z,19.67
2023-04-18T10:16:02.938Z,17.95
2023-04-18T10:18:29.441Z,18.30
2023-04-18T10:21:05.849Z,16.38
2023-04-18T10:23:32.521Z,17.42
2023-04-18T10:25:59.219Z,16.00
2023-04-18T10:28:27.498Z,17.58
2023-04-18T10:31:04.080Z,16.52
2023-04-18T10:33:41.086Z,17.02
2023-04-18T10:36:08.884Z,16.27
2023-04-18T10:38:45.982Z,19.58
2023-04-18T10:41:30.110Z,17.10
2023-04-18T10:44:08.975Z,16.75
2023-04-18T10:46:51.074Z,17.05
2023-04-18T10:49:17.573Z,15.05
2023-04-18T10:51:45.882Z,15.38
2023-04-18T10:54:38.789Z,14.30
2023-04-18T10:57:07.706Z,15.48
2023-04-18T10:59:38.340Z,16.55
2023-04-18T11:02:19.360Z,14.27
2023-04-18T11:04:54.085Z,14.82
2023-04-18T11:07:35.573Z,12.57
2023-04-18T11:10:03.244Z,15.65
2023-04-18T11:12:35.497Z,13.55
2023-04-18T11:15:09.356Z,16.50
2023-04-18T11:17:36.142Z,13.27
2023-04-18T11:20:14.197Z,13.13
2023-04-18T11:22:58.048Z,12.90
2023-04-18T11:25:31.870Z,12.75
2023-04-18T11:28:00.424Z,16.42
2023-04-18T11:30:28.318Z,12.82
2023-04-18T11:32:55.966Z,14.07
2023-04-18T11:35:22.801Z,12.98
2023-04-18T11:37:50.259Z,11.40
2023-04-18T11:40:16.802Z,12.45
2023-04-18T11:42:43.392Z,14.07
2023-04-18T11:45:12.714Z,12.52
2023-04-18T11:47:41.611Z,11.55
2023-04-18T11:50:10.217Z,11.70
2023-04-18T11:52:37.891Z,13.55
2023-04-18T11:55:21.081Z,14.50
2023-04-18T11:57:51.806Z,14.45
2023-04-18T12:00:22.259Z,14.93
2023-04-18T12:02:51.301Z,14.95
2023-04-18T12:05:26.511Z,13.98
2023-04-18T12:07:53.395Z,13.25
2023-04-18T12:10:19.800Z,15.52
2023-04-18T12:12:54.475Z,13.20
2023-04-18T12:15:27.198Z,13.40
2023-04-18T12:18:02.077Z,10.48
2023-04-18T12:20:52.524Z,14.88
2023-04-18T12:23:40.008Z,13.43
2023-04-18T12:26:08.115Z,12.82
2023-04-18T12:28:35.396Z,14.68
2023-04-18T12:31:02.663Z,14.65
2023-04-18T12:33:30.414Z,13.52
2023-04-18T12:35:57.336Z,14.43
2023-04-18T12:38:24.002Z,15.45
2023-04-18T12:40:51.713Z,13.98
2023-04-18T12:43:19.217Z,14.18
2023-04-18T12:45:47.002Z,17.15
2023-04-18T12:48:13.925Z,14.05
2023-04-18T12:50:40.558Z,13.60
2023-04-18T12:53:07.041Z,15.88
2023-04-18T12:55:33.507Z,13.80
2023-04-18T12:58:00.681Z,15.40
2023-04-18T13:00:29.715Z,12.68
2023-04-18T13:02:56.772Z,13.63
2023-04-18T13:05:27.308Z,11.82
2023-04-18T13:08:08.635Z,12.98
2023-04-18T13:10:39.639Z,13.55
2023-04-18T13:13:06.077Z,12.07
2023-04-18T13:15:32.608Z,12.98
2023-04-18T13:18:04.476Z,13.55
2023-04-18T13:20:32.182Z,12.02
2023-04-18T13:22:58.703Z,12.43
2023-04-18T13:25:26.510Z,11.25
2023-04-18T13:27:53.332Z,9.13
2023-04-18T13:30:19.970Z,6.88
2023-04-18T13:32:47.027Z,9.32
2023-04-18T13:35:13.717Z,7.30
2023-04-18T13:37:40.198Z,7.82
2023-04-18T13:40:07.255Z,7.15
2023-04-18T13:42:34.318Z,6.30
2023-04-18T13:45:00.758Z,7.07
2023-04-18T13:47:27.485Z,7.78
2023-04-18T13:49:54.117Z,6.15
2023-04-18T13:52:20.535Z,6.68
2023-04-18T13:54:47.961Z,6.15
2023-04-18T13:57:14.674Z,7.47
2023-04-18T13:59:41.504Z,8.05
2023-04-18T14:02:09.536Z,6.90
2023-04-18T14:04:36.621Z,8.95
2023-04-18T14:07:03.688Z,10.70
2023-04-18T14:09:30.145Z,10.98
2023-04-18T14:11:58.055Z,11.65
2023-04-18T14:14:24.617Z,10.00
2023-04-18T14:16:51.165Z,11.90
2023-04-18T14:19:17.897Z,11.85
2023-04-18T14:21:44.303Z,9.02
2023-04-18T14:24:11.822Z,7.38
2023-04-18T14:26:38.340Z,7.40
2023-04-18T14:29:05.117Z,8.02
2023-04-18T14:31:31.671Z,9.02
2023-04-18T14:33:58.187Z,6.60
2023-04-18T14:36:24.622Z,6.65
2023-04-18T14:38:51.103Z,6.38
2023-04-18T14:41:17.609Z,6.85
2023-04-18T14:43:44.126Z,8.40
2023-04-18T14:46:13.560Z,7.07
2023-04-18T14:48:40.082Z,7.05
2023-04-18T14:51:06.990Z,7.53
2023-04-18T14:53:34.088Z,7.03
2023-04-18T14:56:00.639Z,7.72
2023-04-18T14:58:27.128Z,7.28
2023-04-18T15:00:53.638Z,6.47
2023-04-18T15:03:20.293Z,7.25
2023-04-18T15:05:48.389Z,6.68
2023-04-18T15:08:16.100Z,6.45
2023-04-18T15:10:42.853Z,6.70
2023-04-18T15:13:10.148Z,7.72
2023-04-18T15:15:37.857Z,7.20
2023-04-18T15:18:04.739Z,9.05
2023-04-18T15:20:31.315Z,8.68
2023-04-18T15:22:57.774Z,6.47
2023-04-18T15:25:25.938Z,6.65
2023-04-18T15:27:52.895Z,6.90
2023-04-18T15:30:19.692Z,6.07
2023-04-18T15:32:47.559Z,7.32
2023-04-18T15:35:14.240Z,6.60
2023-04-18T15:37:41.457Z,10.70
2023-04-18T15:40:10.362Z,7.25
2023-04-18T15:42:36.907Z,8.50
2023-04-18T15:45:04.411Z,8.75
2023-04-18T15:47:33.636Z,7.80
2023-04-18T15:50:00.854Z,8.57
2023-04-18T15:52:27.350Z,10.25
2023-04-18T15:54:54.488Z,8.23
2023-04-18T15:57:21.780Z,9.07
2023-04-18T15:59:48.238Z,8.30
2023-04-18T16:02:14.938Z,8.40
2023-04-18T16:04:41.443Z,9.65
2023-04-18T16:07:08.771Z,9.23
2023-04-18T16:09:35.238Z,10.98
2023-04-18T16:12:03.188Z,8.95
2023-04-18T16:14:31.194Z,9.60
2023-04-18T16:16:58.814Z,10.10
2023-04-18T16:19:25.519Z,9.70
2023-04-18T16:21:52.394Z,9.07
2023-04-18T16:24:18.944Z,8.43
2023-04-18T16:26:45.450Z,10.48
2023-04-18T16:29:11.903Z,9.27
2023-04-18T16:31:38.436Z,9.27
2023-04-18T16:34:04.875Z,8.35
2023-04-18T16:36:34.617Z,7.18
2023-04-18T16:39:01.114Z,8.10
2023-04-18T16:41:27.626Z,9.90
2023-04-18T16:43:54.053Z,7.78
2023-04-18T16:46:20.534Z,11.82
2023-04-18T16:48:47.103Z,10.15
2023-04-18T16:51:13.613Z,7.32
2023-04-18T16:53:40.024Z,8.02
2023-04-18T16:56:07.895Z,7.55
2023-04-18T16:58:34.385Z,8.93
2023-04-18T17:01:03.704Z,8.73
2023-04-18T17:03:30.509Z,8.07
2023-04-18T17:05:57.095Z,10.25
2023-04-18T17:08:25.757Z,7.70
2023-04-18T17:10:52.746Z,8.10
2023-04-18T17:13:19.235Z,7.35
2023-04-18T17:15:46.029Z,8.50
2023-04-18T17:18:12.598Z,8.15
2023-04-18T17:20:39.088Z,8.85
2023-04-18T17:23:05.480Z,8.93
2023-04-18T17:25:31.927Z,8.68
2023-04-18T17:27:58.630Z,8.80
2023-04-18T17:30:25.168Z,7.32
2023-04-18T17:32:51.692Z,9.07
2023-04-18T17:35:18.375Z,7.88
2023-04-18T17:37:46.568Z,8.70
2023-04-18T17:40:13.713Z,8.80
2023-04-18T17:42:40.238Z,9.50
2023-04-18T17:45:08.289Z,9.70
2023-04-18T17:47:36.324Z,10.70
2023-04-18T17:50:06.787Z,8.90
2023-04-18T17:52:33.288Z,11.48
2023-04-18T17:55:01.411Z,9.32
2023-04-18T17:57:30.284Z,8.63
2023-04-18T17:59:56.706Z,9.40
2023-04-18T18:02:23.584Z,9.70
2023-04-18T18:04:51.309Z,9.43
2023-04-18T18:07:18.288Z,8.63
2023-04-18T18:09:45.520Z,9.82
2023-04-18T18:12:12.404Z,11.13
2023-04-18T18:14:40.437Z,10.93
2023-04-18T18:17:06.906Z,12.35
2023-04-18T18:19:35.961Z,9.63
2023-04-18T18:22:02.462Z,9.77
2023-04-18T18:24:29.022Z,14.75
2023-04-18T18:26:56.280Z,8.73
2023-04-18T18:29:22.861Z,8.43
2023-04-18T18:31:49.405Z,10.48
2023-04-18T18:34:16.789Z,12.40
2023-04-18T18:36:43.259Z,11.02
2023-04-18T18:39:11.088Z,9.90
2023-04-18T18:41:37.724Z,12.63
2023-04-18T18:44:04.310Z,10.85
2023-04-18T18:46:30.938Z,11.02
2023-04-18T18:48:57.587Z,12.38
2023-04-18T18:51:24.062Z,10.52
2023-04-18T18:53:50.567Z,10.45
2023-04-18T18:56:17.013Z,11.95
2023-04-18T18:58:43.789Z,14.65
2023-04-18T19:01:11.478Z,10.57
2023-04-18T19:03:38.230Z,12.40
2023-04-18T19:06:06.899Z,10.55
2023-04-18T19:08:33.769Z,10.10
2023-04-18T19:11:00.413Z,9.20
2023-04-18T19:13:26.953Z,10.48
2023-04-18T19:15:53.467Z,9.38
2023-04-18T19:18:20.218Z,10.05
2023-04-18T19:20:47.011Z,9.73
2023-04-18T19:23:13.454Z,9.57
2023-04-18T19:25:40.051Z,11.82
2023-04-18T19:28:06.606Z,10.73
2023-04-18T19:30:33.142Z,11.48
2023-04-18T19:32:59.926Z,11.23
2023-04-18T19:35:27.858Z,11.05
2023-04-18T19:38:01.253Z,10.45
2023-04-18T19:40:28.578Z,10.63
2023-04-18T19:42:55.106Z,12.63
2023-04-18T19:45:21.535Z,12.70
2023-04-18T19:47:48.087Z,9.88
2023-04-18T19:50:14.698Z,10.90
2023-04-18T19:52:41.280Z,12.18
2023-04-18T19:55:08.177Z,10.88
2023-04-18T19:57:41.413Z,11.95
2023-04-18T20:00:12.880Z,11.05
2023-04-18T20:02:40.514Z,12.30
2023-04-18T20:05:08.198Z,11.07
2023-04-18T20:07:35.600Z,10.95
2023-04-18T20:10:02.055Z,12.20
2023-04-18T20:12:28.582Z,11.77
2023-04-18T20:14:55.593Z,12.27
2023-04-18T20:17:22.161Z,11.80
2023-04-18T20:19:49.736Z,10.40
2023-04-18T20:22:17.211Z,11.73
2023-04-18T20:24:44.988Z,14.63
2023-04-18T20:27:11.862Z,13.43
2023-04-18T20:29:38.362Z,11.57
2023-04-18T20:32:05.118Z,10.75
2023-04-18T20:34:32.081Z,15.07
2023-04-18T20:36:59.902Z,12.63
2023-04-18T20:39:26.795Z,12.15
2023-04-18T20:41:54.247Z,11.20
2023-04-18T20:44:21.744Z,11.55
2023-04-18T20:46:48.321Z,11.15
2023-04-18T20:49:14.899Z,14.40
2023-04-18T20:51:41.449Z,12.88
2023-04-18T20:54:07.887Z,12.18
2023-04-18T20:56:36.582Z,14.40
2023-04-18T20:59:04.701Z,11.50
2023-04-18T21:01:31.411Z,13.45
2023-04-18T21:03:58.364Z,11.27
2023-04-18T21:06:25.315Z,13.90
2023-04-18T21:08:51.764Z,15.30
2023-04-18T21:11:18.222Z,15.13
2023-04-18T21:13:44.700Z,13.07
2023-04-18T21:16:11.237Z,13.65
2023-04-18T21:18:37.707Z,15.57
2023-04-18T21:21:04.492Z,13.07
2023-04-18T21:23:31.079Z,14.13
2023-04-18T21:25:57.497Z,13.05
2023-04-18T21:28:23.901Z,13.43
2023-04-18T21:30:50.687Z,14.93
2023-04-18T21:33:17.159Z,13.10
2023-04-18T21:35:43.704Z,13.07
2023-04-18T21:38:10.134Z,13.65
2023-04-18T21:40:37.277Z,14.80
2023-04-18T21:43:03.798Z,14.93
2023-04-18T21:45:30.376Z,15.70
2023-04-18T21:47:56.870Z,13.73
2023-04-18T21:50:23.474Z,15.32
2023-04-18T21:52:49.960Z,16.15
2023-04-18T21:55:17.710Z,15.18
2023-04-18T21:57:44.153Z,16.05
2023-04-18T22:00:11.205Z,16.40
2023-04-18T22:02:40.057Z,17.58
2023-04-18T22:05:07.630Z,13.13
2023-04-18T22:07:38.518Z,12.30
2023-04-18T22:10:10.974Z,14.07
2023-04-18T22:12:37.672Z,12.45
2023-04-18T22:15:04.305Z,16.40
2023-04-18T22:17:31.416Z,13.38
2023-04-18T22:19:57.959Z,13.70
2023-04-18T22:22:24.449Z,15.73
2023-04-18T22:24:50.903Z,15.07
2023-04-18T22:27:17.379Z,12.90
2023-04-18T22:29:43.758Z,13.35
2023-04-18T22:32:10.205Z,12.95
2023-04-18T22:34:36.599Z,15.55
2023-04-18T22:37:03.031Z,16.08
2023-04-18T22:39:31.101Z,14.65
2023-04-18T22:41:57.520Z,17.30
2023-04-18T22:44:23.970Z,14.25
2023-04-18T22:46:50.776Z,16.08
2023-04-18T22:49:17.894Z,15.82
2023-04-18T22:51:46.237Z,12.73
2023-04-18T22:54:12.833Z,15.05
2023-04-18T22:56:39.518Z,13.80
2023-04-18T22:59:05.996Z,14.73
2023-04-18T23:01:32.504Z,13.95
2023-04-18T23:03:59.182Z,19.15
2023-04-18T23:06:27.908Z,15.65
2023-04-18T23:08:54.429Z,14.50
2023-04-18T23:11:21.556Z,15.23
2023-04-18T23:13:48.015Z,13.80
2023-04-18T23:16:14.572Z,14.10
2023-04-18T23:18:41.162Z,12.88
2023-04-18T23:21:07.681Z,15.05
2023-04-18T23:23:34.155Z,15.30
2023-04-18T23:26:00.722Z,16.85
2023-04-18T23:28:27.255Z,15.10
2023-04-18T23:30:53.669Z,15.70
2023-04-18T23:33:20.526Z,17.63
2023-04-18T23:35:46.971Z,14.60
2023-04-18T23:38:13.411Z,16.15
2023-04-18T23:40:39.806Z,16.23
2023-04-18T23:43:06.393Z,14.05
2023-04-18T23:45:32.819Z,14.48
2023-04-18T23:47:59.269Z,17.15
2023-04-18T23:50:25.798Z,15.70
2023-04-18T23:52:52.233Z,17.15
2023-04-18T23:55:18.694Z,16.98
2023-04-18T23:57:45.105Z,16.30
